createdAt,value
2019-03-22T00:01:21.961Z,82.20
2019-03-22T00:03:48.169Z,82.40
2019-03-22T00:06:14.426Z,83.80
2019-03-22T00:08:40.765Z,86.90
2019-03-22T00:11:07.024Z,87.70
2019-03-22T00:13:33.277Z,88.10
2019-03-22T00:15:59.521Z,88.60
2019-03-22T00:18:25.775Z,90.10
2019-03-22T00:20:52.007Z,90.00
2019-03-22T00:23:18.387Z,89.90
2019-03-22T00:25:44.657Z,88.80
2019-03-22T00:28:11.052Z,89.30
2019-03-22T00:30:37.289Z,88.10
2019-03-22T00:33:03.560Z,87.90
2019-03-22T00:35:29.777Z,88.50
2019-03-22T00:37:56.004Z,89.30
2019-03-22T00:40:22.250Z,88.50
2019-03-22T00:42:48.477Z,87.90
2019-03-22T00:45:14.742Z,87.30
2019-03-22T00:47:40.958Z,87.50
2019-03-22T00:50:09.618Z,87.20
2019-03-22T00:52:35.886Z,87.20
2019-03-22T00:55:02.621Z,87.20
2019-03-22T00:57:29.006Z,86.70
2019-03-22T00:59:55.202Z,86.60
2019-03-22T01:02:21.466Z,87.20
2019-03-22T01:04:47.711Z,88.30
2019-03-22T01:07:14.477Z,88.90
2019-03-22T01:09:41.313Z,88.20
2019-03-22T01:12:07.887Z,88.30
2019-03-22T01:14:34.555Z,88.60
2019-03-22T01:17:01.380Z,88.50
2019-03-22T01:19:28.163Z,88.50
2019-03-22T01:21:54.539Z,88.70
2019-03-22T01:24:21.078Z,89.00
2019-03-22T01:26:47.309Z,89.40
2019-03-22T01:29:13.590Z,89.50
2019-03-22T01:31:40.113Z,89.70
2019-03-22T01:34:06.487Z,90.00
2019-03-22T01:36:32.857Z,90.70
2019-03-22T01:38:59.174Z,90.90
2019-03-22T01:41:25.570Z,91.80
2019-03-22T01:43:51.821Z,92.20
2019-03-22T01:46:18.243Z,92.10
2019-03-22T01:48:44.762Z,92.10
2019-03-22T01:51:11.160Z,92.00
2019-03-22T01:53:37.466Z,91.80
2019-03-22T01:56:03.886Z,92.00
2019-03-22T01:58:30.219Z,92.30
2019-03-22T02:00:56.637Z,92.00
2019-03-22T02:03:22.853Z,92.20
2019-03-22T02:05:49.112Z,92.20
2019-03-22T02:08:15.360Z,92.60
2019-03-22T02:10:41.622Z,93.30
2019-03-22T02:13:08.045Z,93.60
2019-03-22T02:15:34.523Z,93.60
2019-03-22T02:18:00.783Z,93.90
2019-03-22T02:20:27.452Z,93.80
2019-03-22T02:22:53.819Z,93.90
2019-03-22T02:25:20.366Z,94.00
2019-03-22T02:27:46.621Z,94.10
2019-03-22T02:30:15.067Z,94.60
2019-03-22T02:32:41.424Z,94.70
2019-03-22T02:35:08.907Z,95.10
2019-03-22T02:37:35.520Z,95.50
2019-03-22T02:40:04.378Z,94.80
2019-03-22T02:42:30.638Z,94.60
2019-03-22T02:44:56.878Z,94.20
2019-03-22T02:47:23.509Z,94.80
2019-03-22T02:49:49.748Z,94.90
2019-03-22T02:52:16.029Z,95.30
2019-03-22T02:54:42.274Z,95.70
2019-03-22T02:57:08.680Z,95.40
2019-03-22T02:59:35.096Z,95.80
2019-03-22T03:02:01.487Z,96.30
2019-03-22T03:04:28.170Z,96.50
2019-03-22T03:06:54.417Z,96.80
2019-03-22T03:09:20.923Z,96.70
2019-03-22T03:11:47.193Z,96.70
2019-03-22T03:14:13.691Z,96.70
2019-03-22T03:16:40.111Z,96.70
2019-03-22T03:19:06.520Z,96.50
2019-03-22T03:21:32.858Z,96.70
2019-03-22T03:23:59.118Z,96.70
2019-03-22T03:26:25.648Z,96.50
2019-03-22T03:28:52.051Z,96.40
2019-03-22T03:31:18.550Z,96.90
2019-03-22T03:33:44.997Z,96.80
2019-03-22T03:36:11.392Z,96.70
2019-03-22T03:38:37.767Z,97.10
2019-03-22T03:41:04.207Z,97.20
2019-03-22T03:43:30.435Z,97.70
2019-03-22T03:45:58.596Z,97.70
2019-03-22T03:48:24.827Z,97.80
2019-03-22T03:50:51.126Z,97.70
2019-03-22T03:53:17.910Z,97.50
2019-03-22T03:55:44.273Z,97.80
2019-03-22T03:58:10.971Z,98.00
2019-03-22T04:00:37.797Z,98.70
2019-03-22T04:03:04.418Z,98.70
2019-03-22T04:05:30.908Z,98.20
2019-03-22T04:07:57.524Z,98.40
2019-03-22T04:10:25.913Z,98.60
2019-03-22T04:12:52.684Z,98.60
2019-03-22T04:15:19.346Z,98.30
2019-03-22T04:17:45.783Z,98.70
2019-03-22T04:20:12.222Z,99.00
2019-03-22T04:22:38.529Z,99.10
2019-03-22T04:25:06.100Z,99.30
2019-03-22T04:27:32.453Z,99.30
2019-03-22T04:29:58.719Z,99.40
2019-03-22T04:32:24.951Z,99.40
2019-03-22T04:34:51.319Z,99.60
2019-03-22T04:37:17.587Z,99.60
2019-03-22T04:39:44.023Z,99.90
2019-03-22T04:42:10.381Z,99.90
2019-03-22T04:44:36.680Z,99.90
2019-03-22T04:47:03.422Z,99.90
2019-03-22T04:49:32.193Z,99.90
2019-03-22T04:51:59.058Z,99.90
2019-03-22T04:54:26.993Z,99.90
2019-03-22T04:56:55.059Z,99.90
2019-03-22T04:59:22.222Z,99.80
2019-03-22T05:01:51.826Z,99.80
2019-03-22T05:04:20.557Z,99.80
2019-03-22T05:06:48.650Z,99.90
2019-03-22T05:09:16.619Z,99.90
2019-03-22T05:11:45.860Z,99.90
2019-03-22T05:14:15.345Z,99.90
2019-03-22T05:16:43.352Z,99.90
2019-03-22T05:19:10.542Z,99.90
2019-03-22T05:21:37.175Z,99.90
2019-03-22T05:24:04.338Z,99.70
2019-03-22T05:26:33.572Z,99.80
2019-03-22T05:29:00.338Z,99.40
2019-03-22T05:31:33.177Z,99.00
2019-03-22T05:33:59.441Z,98.90
2019-03-22T05:36:25.779Z,98.40
2019-03-22T05:38:52.433Z,97.70
2019-03-22T05:41:18.751Z,97.20
2019-03-22T05:43:45.043Z,96.40
2019-03-22T05:46:11.327Z,94.80
2019-03-22T05:48:37.750Z,92.50
2019-03-22T05:51:04.132Z,87.40
2019-03-22T05:53:32.428Z,82.10
2019-03-22T05:55:58.950Z,70.90
2019-03-22T05:58:25.491Z,65.40
2019-03-22T06:00:51.819Z,65.80
2019-03-22T06:03:18.081Z,67.00
2019-03-22T06:05:44.324Z,58.90
2019-03-22T06:08:10.691Z,56.70
2019-03-22T06:10:37.054Z,59.00
2019-03-22T06:13:03.322Z,50.50
2019-03-22T06:15:29.556Z,47.10
2019-03-22T06:17:55.901Z,44.00
2019-03-22T06:20:22.129Z,42.30
2019-03-22T06:22:48.361Z,41.00
2019-03-22T06:25:14.646Z,39.80
2019-03-22T06:27:41.007Z,37.60
2019-03-22T06:30:09.045Z,36.20
2019-03-22T06:32:35.389Z,35.00
2019-03-22T06:35:02.058Z,35.00
2019-03-22T06:37:28.292Z,36.00
2019-03-22T06:39:54.583Z,37.70
2019-03-22T06:42:20.818Z,40.00
2019-03-22T06:44:47.337Z,42.30
2019-03-22T06:47:13.947Z,43.60
2019-03-22T06:49:40.150Z,44.00
2019-03-22T06:52:06.579Z,45.30
2019-03-22T06:54:32.838Z,46.40
2019-03-22T06:56:59.095Z,46.40
2019-03-22T06:59:25.428Z,47.30
2019-03-22T07:01:51.786Z,47.80
2019-03-22T07:04:18.126Z,48.20
2019-03-22T07:06:44.441Z,49.20
2019-03-22T07:09:10.620Z,49.80
2019-03-22T07:11:36.841Z,49.80
2019-03-22T07:14:03.316Z,50.70
2019-03-22T07:16:29.545Z,50.60
2019-03-22T07:18:56.125Z,50.60
2019-03-22T07:21:22.367Z,50.70
2019-03-22T07:23:49.038Z,51.20
2019-03-22T07:26:15.283Z,51.30
2019-03-22T07:28:41.544Z,48.80
2019-03-22T07:31:07.882Z,43.60
2019-03-22T07:33:34.147Z,38.80
2019-03-22T07:36:00.387Z,34.50
2019-03-22T07:38:26.614Z,31.00
2019-03-22T07:40:52.899Z,29.20
2019-03-22T07:43:19.128Z,28.70
2019-03-22T07:45:45.390Z,28.20
2019-03-22T07:48:11.629Z,27.60
2019-03-22T07:50:37.918Z,27.10
2019-03-22T07:53:04.146Z,26.50
2019-03-22T07:55:30.406Z,26.40
2019-03-22T07:57:56.646Z,26.10
2019-03-22T08:00:30.759Z,26.30
2019-03-22T08:02:50.970Z,26.90
2019-03-22T08:05:17.200Z,27.60
2019-03-22T08:07:43.458Z,28.30
2019-03-22T08:10:10.003Z,31.00
2019-03-22T08:12:36.253Z,33.80
2019-03-22T08:15:03.913Z,35.50
2019-03-22T08:17:30.187Z,35.60
2019-03-22T08:19:57.418Z,35.90
2019-03-22T08:22:23.893Z,34.80
2019-03-22T08:24:50.116Z,34.90
2019-03-22T08:27:16.380Z,35.60
2019-03-22T08:29:42.626Z,37.50
2019-03-22T08:32:10.053Z,38.10
2019-03-22T08:34:36.266Z,36.00
2019-03-22T08:37:02.525Z,41.30
2019-03-22T08:39:28.761Z,42.10
2019-03-22T08:41:54.986Z,44.10
2019-03-22T08:44:21.250Z,43.00
2019-03-22T08:46:47.503Z,43.60
2019-03-22T08:49:13.813Z,43.40
2019-03-22T08:51:40.150Z,42.00
2019-03-22T08:54:06.371Z,40.20
2019-03-22T08:56:32.649Z,38.70
2019-03-22T08:58:58.828Z,39.20
2019-03-22T09:01:25.103Z,39.60
2019-03-22T09:03:51.309Z,38.10
2019-03-22T09:06:17.572Z,39.80
2019-03-22T09:08:43.925Z,39.90
2019-03-22T09:11:10.160Z,40.90
2019-03-22T09:13:36.530Z,39.80
2019-03-22T09:16:02.935Z,40.20
2019-03-22T09:18:29.332Z,40.10
2019-03-22T09:20:55.527Z,40.70
2019-03-22T09:23:21.787Z,40.80
2019-03-22T09:25:48.372Z,40.40
2019-03-22T09:28:14.582Z,40.80
2019-03-22T09:30:40.808Z,39.70
2019-03-22T09:33:07.244Z,39.50
2019-03-22T09:35:33.406Z,40.00
2019-03-22T09:38:12.034Z,40.40
2019-03-22T09:40:27.819Z,40.30
2019-03-22T09:42:54.128Z,41.20
2019-03-22T09:45:20.413Z,39.80
2019-03-22T09:47:46.617Z,40.10
2019-03-22T09:50:13.210Z,39.50
2019-03-22T09:52:39.447Z,40.80
2019-03-22T09:55:13.453Z,39.60
2019-03-22T09:57:33.882Z,40.10
2019-03-22T10:00:00.349Z,41.40
2019-03-22T10:02:26.525Z,50.50
2019-03-22T10:04:52.820Z,45.50
2019-03-22T10:07:18.989Z,47.40
2019-03-22T10:09:45.318Z,42.50
2019-03-22T10:12:11.688Z,42.90
2019-03-22T10:14:37.934Z,42.50
2019-03-22T10:17:04.223Z,41.90
2019-03-22T10:19:30.479Z,41.90
2019-03-22T10:21:56.741Z,44.90
2019-03-22T10:24:22.936Z,41.40
2019-03-22T10:26:49.226Z,41.20
2019-03-22T10:29:15.503Z,41.80
2019-03-22T10:31:41.711Z,42.10
2019-03-22T10:34:08.039Z,41.90
2019-03-22T10:36:34.318Z,42.20
2019-03-22T10:39:00.548Z,42.60
2019-03-22T10:41:26.772Z,42.80
2019-03-22T10:43:53.104Z,42.50
2019-03-22T10:46:19.265Z,42.60
2019-03-22T10:48:45.530Z,42.70
2019-03-22T10:51:11.802Z,42.90
2019-03-22T10:53:38.094Z,42.90
2019-03-22T10:56:05.274Z,42.70
2019-03-22T10:58:31.549Z,42.80
2019-03-22T11:00:57.876Z,43.00
2019-03-22T11:03:24.150Z,43.50
2019-03-22T11:05:50.483Z,44.00
2019-03-22T11:08:16.722Z,44.30
2019-03-22T11:10:42.982Z,44.20
2019-03-22T11:13:09.223Z,44.20
2019-03-22T11:15:35.607Z,44.20
2019-03-22T11:18:01.951Z,44.40
2019-03-22T11:20:28.214Z,45.40
2019-03-22T11:22:54.434Z,44.00
2019-03-22T11:25:20.706Z,43.40
2019-03-22T11:27:46.954Z,44.10
2019-03-22T11:30:16.680Z,44.70
2019-03-22T11:32:43.418Z,44.80
2019-03-22T11:35:09.790Z,45.00
2019-03-22T11:37:36.062Z,44.80
2019-03-22T11:40:05.106Z,44.20
2019-03-22T11:42:31.368Z,44.80
2019-03-22T11:44:57.708Z,44.00
2019-03-22T11:47:23.965Z,43.70
2019-03-22T11:49:50.522Z,44.00
2019-03-22T11:52:16.903Z,44.00
2019-03-22T11:54:43.132Z,44.20
2019-03-22T11:57:09.392Z,43.80
2019-03-22T11:59:35.730Z,43.80
2019-03-22T12:02:02.010Z,44.40
2019-03-22T12:04:30.245Z,43.70
2019-03-22T12:06:56.473Z,44.10
2019-03-22T12:09:23.042Z,43.60
2019-03-22T12:11:49.551Z,43.60
2019-03-22T12:14:15.811Z,43.00
2019-03-22T12:16:42.037Z,43.30
2019-03-22T12:19:08.502Z,43.40
2019-03-22T12:21:34.750Z,43.30
2019-03-22T12:24:01.018Z,43.30
2019-03-22T12:26:27.249Z,43.00
2019-03-22T12:28:53.545Z,43.10
2019-03-22T12:31:19.765Z,43.20
2019-03-22T12:33:45.998Z,42.70
2019-03-22T12:36:12.262Z,42.60
2019-03-22T12:38:38.510Z,42.00
2019-03-22T12:41:04.861Z,42.20
2019-03-22T12:43:31.086Z,41.90
2019-03-22T12:45:57.346Z,42.80
2019-03-22T12:48:23.846Z,41.70
2019-03-22T12:50:50.147Z,46.50
2019-03-22T12:53:16.388Z,42.60
2019-03-22T12:55:42.758Z,42.10
2019-03-22T12:58:08.998Z,42.40
2019-03-22T13:00:35.338Z,42.10
2019-03-22T13:03:01.702Z,42.70
2019-03-22T13:05:28.070Z,42.20
2019-03-22T13:07:54.459Z,41.90
2019-03-22T13:10:23.399Z,42.10
2019-03-22T13:12:49.664Z,42.00
2019-03-22T13:15:16.042Z,41.50
2019-03-22T13:17:42.290Z,41.30
2019-03-22T13:20:12.975Z,41.30
2019-03-22T13:22:39.233Z,41.10
2019-03-22T13:25:07.005Z,40.70
2019-03-22T13:27:33.342Z,41.00
2019-03-22T13:29:59.617Z,41.30
2019-03-22T13:32:25.856Z,40.90
2019-03-22T13:34:52.098Z,40.70
2019-03-22T13:37:18.337Z,40.60
2019-03-22T13:39:44.607Z,40.90
2019-03-22T13:42:10.843Z,40.70
2019-03-22T13:44:37.102Z,40.30
2019-03-22T13:47:03.331Z,39.60
2019-03-22T13:49:29.606Z,39.60
2019-03-22T13:51:55.858Z,40.10
2019-03-22T13:54:22.121Z,39.10
2019-03-22T13:56:48.387Z,38.90
2019-03-22T13:59:14.663Z,39.00
2019-03-22T14:01:40.906Z,39.00
2019-03-22T14:04:07.239Z,38.70
2019-03-22T14:06:33.482Z,39.10
2019-03-22T14:08:59.722Z,38.50
2019-03-22T14:11:25.984Z,39.20
2019-03-22T14:13:52.218Z,38.90
2019-03-22T14:16:18.492Z,39.00
2019-03-22T14:18:44.713Z,39.20
2019-03-22T14:21:11.013Z,38.90
2019-03-22T14:23:37.213Z,38.60
2019-03-22T14:26:03.798Z,38.80
2019-03-22T14:28:30.039Z,38.90
2019-03-22T14:30:56.310Z,37.90
2019-03-22T14:33:22.535Z,37.80
2019-03-22T14:35:48.889Z,38.50
2019-03-22T14:38:15.175Z,38.50
2019-03-22T14:40:41.403Z,39.20
2019-03-22T14:43:07.663Z,38.80
2019-03-22T14:45:33.906Z,38.20
2019-03-22T14:48:00.191Z,37.60
2019-03-22T14:50:26.452Z,37.30
2019-03-22T14:52:53.517Z,37.70
2019-03-22T14:55:19.906Z,37.70
2019-03-22T14:57:49.943Z,37.40
2019-03-22T15:00:14.397Z,37.30
2019-03-22T15:02:40.661Z,49.70
2019-03-22T15:05:07.108Z,47.10
2019-03-22T15:07:33.345Z,43.00
2019-03-22T15:09:59.623Z,42.60
2019-03-22T15:12:25.859Z,42.20
2019-03-22T15:14:54.027Z,42.30
2019-03-22T15:17:25.016Z,41.10
2019-03-22T15:19:55.949Z,38.20
2019-03-22T15:22:33.181Z,41.30
2019-03-22T15:25:01.350Z,39.70
2019-03-22T15:27:46.703Z,36.90
2019-03-22T15:30:17.590Z,38.70
2019-03-22T15:32:48.765Z,37.50
2019-03-22T15:35:17.002Z,37.10
2019-03-22T15:37:45.168Z,37.90
2019-03-22T15:40:11.563Z,38.30
2019-03-22T15:42:37.790Z,38.30
2019-03-22T15:45:06.271Z,39.00
2019-03-22T15:47:32.489Z,38.20
2019-03-22T15:49:58.725Z,38.40
2019-03-22T15:52:25.006Z,38.50
2019-03-22T15:54:51.439Z,38.60
2019-03-22T15:57:17.690Z,38.60
2019-03-22T15:59:43.930Z,39.00
2019-03-22T16:02:10.485Z,39.80
2019-03-22T16:04:36.822Z,39.90
2019-03-22T16:07:04.781Z,39.60
2019-03-22T16:09:31.155Z,39.50
2019-03-22T16:11:57.456Z,39.90
2019-03-22T16:14:23.694Z,41.50
2019-03-22T16:16:49.924Z,45.50
2019-03-22T16:19:16.203Z,44.10
2019-03-22T16:21:42.530Z,43.10
2019-03-22T16:24:08.782Z,43.10
2019-03-22T16:26:35.019Z,43.10
2019-03-22T16:29:01.383Z,43.10
2019-03-22T16:31:27.610Z,42.00
2019-03-22T16:33:54.799Z,41.60
2019-03-22T16:36:21.231Z,41.30
2019-03-22T16:38:50.372Z,42.10
2019-03-22T16:41:16.630Z,42.80
2019-03-22T16:43:42.983Z,42.40
2019-03-22T16:46:09.260Z,42.80
2019-03-22T16:48:35.496Z,42.50
2019-03-22T16:51:01.795Z,42.80
2019-03-22T16:53:28.031Z,43.20
2019-03-22T16:55:54.288Z,43.20
2019-03-22T16:58:20.622Z,43.80
2019-03-22T17:00:49.649Z,44.30
2019-03-22T17:03:15.182Z,44.60
2019-03-22T17:05:41.606Z,44.90
2019-03-22T17:08:07.975Z,45.00
2019-03-22T17:10:34.237Z,45.30
2019-03-22T17:13:00.506Z,45.50
2019-03-22T17:15:26.753Z,45.60
2019-03-22T17:17:53.015Z,45.80
2019-03-22T17:20:19.459Z,46.10
2019-03-22T17:22:45.738Z,46.30
2019-03-22T17:25:12.192Z,46.60
2019-03-22T17:27:38.570Z,46.90
2019-03-22T17:30:06.000Z,47.00
2019-03-22T17:32:32.361Z,47.20
2019-03-22T17:34:58.590Z,47.50
2019-03-22T17:37:24.840Z,47.60
2019-03-22T17:39:51.080Z,48.30
2019-03-22T17:42:17.306Z,49.30
2019-03-22T17:44:43.563Z,49.90
2019-03-22T17:47:09.806Z,50.50
2019-03-22T17:49:36.066Z,51.00
2019-03-22T17:52:02.435Z,51.30
2019-03-22T17:54:28.677Z,51.70
2019-03-22T17:56:54.910Z,52.10
2019-03-22T17:59:21.267Z,52.70
2019-03-22T18:01:47.977Z,52.40
2019-03-22T18:04:23.730Z,52.60
2019-03-22T18:06:42.588Z,53.10
2019-03-22T18:09:08.805Z,53.60
2019-03-22T18:11:35.125Z,54.20
2019-03-22T18:14:01.322Z,54.40
2019-03-22T18:16:27.735Z,55.10
2019-03-22T18:18:53.963Z,55.50
2019-03-22T18:21:20.412Z,55.90
2019-03-22T18:23:46.638Z,56.70
2019-03-22T18:26:12.934Z,57.00
2019-03-22T18:28:39.166Z,57.60
2019-03-22T18:31:05.541Z,58.30
2019-03-22T18:33:31.766Z,59.10
2019-03-22T18:35:58.022Z,59.80
2019-03-22T18:38:24.251Z,61.10
2019-03-22T18:40:50.558Z,62.50
2019-03-22T18:43:16.786Z,63.70
2019-03-22T18:45:43.023Z,65.10
2019-03-22T18:48:09.287Z,66.40
2019-03-22T18:50:35.566Z,68.40
2019-03-22T18:53:01.866Z,69.60
2019-03-22T18:55:28.086Z,73.10
2019-03-22T18:57:54.461Z,73.90
2019-03-22T19:00:20.777Z,76.20
2019-03-22T19:02:47.051Z,77.40
2019-03-22T19:05:13.566Z,79.80
2019-03-22T19:07:39.797Z,83.70
2019-03-22T19:10:11.843Z,83.40
2019-03-22T19:12:38.074Z,84.90
2019-03-22T19:15:07.280Z,85.90
2019-03-22T19:17:33.517Z,88.20
2019-03-22T19:19:59.777Z,87.50
2019-03-22T19:22:26.009Z,89.20
2019-03-22T19:24:52.290Z,89.80
2019-03-22T19:27:18.564Z,90.30
2019-03-22T19:29:44.774Z,90.50
2019-03-22T19:32:13.740Z,90.90
2019-03-22T19:34:39.094Z,91.60
2019-03-22T19:37:05.383Z,91.20
2019-03-22T19:39:31.598Z,91.70
2019-03-22T19:41:57.853Z,92.00
2019-03-22T19:44:24.182Z,92.30
2019-03-22T19:46:50.438Z,92.60
2019-03-22T19:49:16.682Z,92.90
2019-03-22T19:51:42.974Z,93.00
2019-03-22T19:54:09.199Z,93.30
2019-03-22T19:56:35.554Z,93.40
2019-03-22T19:59:01.802Z,93.50
2019-03-22T20:01:28.035Z,93.80
2019-03-22T20:03:54.395Z,94.00
2019-03-22T20:06:20.727Z,94.20
2019-03-22T20:08:46.983Z,94.40
2019-03-22T20:11:13.220Z,94.80
2019-03-22T20:13:39.529Z,94.80
2019-03-22T20:16:05.762Z,94.70
2019-03-22T20:18:32.086Z,95.10
2019-03-22T20:20:58.338Z,95.00
2019-03-22T20:23:24.570Z,95.10
2019-03-22T20:25:50.827Z,95.50
2019-03-22T20:28:17.045Z,96.40
2019-03-22T20:30:43.306Z,96.70
2019-03-22T20:33:09.546Z,96.60
2019-03-22T20:35:36.063Z,96.70
2019-03-22T20:38:02.310Z,96.50
2019-03-22T20:40:28.558Z,96.60
2019-03-22T20:42:54.790Z,97.10
2019-03-22T20:45:24.290Z,97.30
2019-03-22T20:47:49.090Z,97.70
2019-03-22T20:50:15.422Z,97.80
2019-03-22T20:52:41.702Z,97.60
2019-03-22T20:55:08.726Z,97.50
2019-03-22T20:57:34.990Z,97.30
2019-03-22T21:00:03.137Z,98.00
2019-03-22T21:02:29.394Z,97.70
2019-03-22T21:04:55.630Z,97.50
2019-03-22T21:07:21.862Z,97.50
2019-03-22T21:09:48.160Z,97.10
2019-03-22T21:12:14.410Z,97.00
2019-03-22T21:14:40.643Z,97.00
2019-03-22T21:17:06.877Z,97.30
2019-03-22T21:19:33.134Z,97.30
2019-03-22T21:21:59.470Z,96.50
2019-03-22T21:24:25.734Z,96.10
2019-03-22T21:26:51.978Z,95.80
2019-03-22T21:29:18.256Z,95.10
2019-03-22T21:31:44.482Z,94.80
2019-03-22T21:34:10.798Z,95.30
2019-03-22T21:36:37.110Z,95.10
2019-03-22T21:39:05.146Z,95.20
2019-03-22T21:41:31.513Z,95.10
2019-03-22T21:43:57.794Z,95.20
2019-03-22T21:46:24.098Z,95.10
2019-03-22T21:48:50.318Z,94.90
2019-03-22T21:51:17.255Z,94.80
2019-03-22T21:53:43.489Z,95.00
2019-03-22T21:56:09.846Z,95.20
2019-03-22T21:58:36.121Z,95.10
2019-03-22T22:01:02.547Z,94.70
2019-03-22T22:03:28.798Z,95.10
2019-03-22T22:05:55.038Z,95.00
2019-03-22T22:08:21.288Z,95.00
2019-03-22T22:10:47.518Z,94.90
2019-03-22T22:13:13.828Z,95.00
2019-03-22T22:15:40.011Z,94.90
2019-03-22T22:18:06.278Z,95.00
2019-03-22T22:20:32.510Z,95.00
2019-03-22T22:22:58.880Z,95.90
2019-03-22T22:25:25.355Z,96.10
2019-03-22T22:27:51.568Z,96.00
2019-03-22T22:30:17.934Z,95.60
2019-03-22T22:32:44.162Z,95.80
2019-03-22T22:35:10.522Z,95.70
2019-03-22T22:37:36.761Z,96.00
2019-03-22T22:40:05.722Z,96.10
2019-03-22T22:42:31.954Z,96.30
2019-03-22T22:44:58.219Z,96.90
2019-03-22T22:47:24.450Z,97.40
2019-03-22T22:49:50.678Z,97.30
2019-03-22T22:52:16.976Z,97.60
2019-03-22T22:54:43.206Z,97.90
2019-03-22T22:57:09.464Z,98.40
2019-03-22T22:59:35.677Z,98.60
2019-03-22T23:02:02.546Z,98.60
2019-03-22T23:04:28.766Z,98.80
2019-03-22T23:06:55.133Z,99.10
2019-03-22T23:09:21.363Z,99.20
2019-03-22T23:11:47.631Z,99.30
2019-03-22T23:14:13.850Z,99.40
2019-03-22T23:16:40.082Z,99.50
2019-03-22T23:19:06.342Z,99.80
2019-03-22T23:21:32.565Z,99.90
2019-03-22T23:23:58.825Z,99.90
2019-03-22T23:26:25.050Z,99.90
2019-03-22T23:28:51.350Z,99.90
2019-03-22T23:31:17.562Z,99.90
2019-03-22T23:33:43.874Z,99.90
2019-03-22T23:36:19.752Z,99.90
2019-03-22T23:38:38.170Z,99.90
2019-03-22T23:41:04.399Z,99.90
2019-03-22T23:43:30.626Z,99.90
2019-03-22T23:45:56.890Z,99.90
2019-03-22T23:48:23.109Z,99.90
2019-03-22T23:50:49.380Z,99.90
2019-03-22T23:53:15.740Z,99.90
2019-03-22T23:55:42.126Z,99.90
2019-03-22T23:58:08.845Z,99.90
